createdAt,value
2023-05-06T00:01:30.281Z,100377.97
2023-05-06T00:04:03.513Z,100375.33
2023-05-06T00:06:35.999Z,100376.23
2023-05-06T00:09:08.197Z,100377.17
2023-05-06T00:11:40.713Z,100378.93
2023-05-06T00:14:13.402Z,100382.42
2023-05-06T00:16:46.241Z,100385.88
2023-05-06T00:19:18.746Z,100382.45
2023-05-06T00:21:51.401Z,100388.56
2023-05-06T00:24:25.591Z,100388.60
2023-05-06T00:26:58.677Z,100377.41
2023-05-06T00:29:31.231Z,100391.20
2023-05-06T00:32:03.652Z,100385.21
2023-05-06T00:34:36.034Z,100383.52
2023-05-06T00:37:08.380Z,100384.41
2023-05-06T00:39:40.489Z,100378.41
2023-05-06T00:42:13.106Z,100379.30
2023-05-06T00:44:45.215Z,100381.02
2023-05-06T00:47:18.794Z,100391.42
2023-05-06T00:49:51.860Z,100394.06
2023-05-06T00:52:24.340Z,100393.19
2023-05-06T00:54:56.620Z,100394.95
2023-05-06T00:57:28.671Z,100393.20
2023-05-06T01:00:01.012Z,100389.80
2023-05-06T01:02:46.514Z,100395.02
2023-05-06T01:05:10.469Z,100393.31
2023-05-06T01:07:43.618Z,100395.90
2023-05-06T01:10:38.347Z,100397.55
2023-05-06T01:13:22.621Z,100400.20
2023-05-06T01:15:57.799Z,100401.97
2023-05-06T01:18:33.184Z,100391.62
2023-05-06T01:21:07.659Z,100402.01
2023-05-06T01:23:58.472Z,100392.55
2023-05-06T01:26:30.854Z,100407.22
2023-05-06T01:29:04.041Z,100414.97
2023-05-06T01:31:39.088Z,100400.34
2023-05-06T01:34:17.196Z,100411.52
2023-05-06T01:37:08.826Z,100407.23
2023-05-06T01:39:42.804Z,100402.06
2023-05-06T01:42:16.711Z,100407.23
2023-05-06T01:44:51.666Z,100410.69
2023-05-06T01:47:24.477Z,100411.56
2023-05-06T01:49:57.500Z,100409.85
2023-05-06T01:52:29.940Z,100408.10
2023-05-06T01:55:02.157Z,100404.64
2023-05-06T01:57:34.996Z,100407.23
2023-05-06T02:00:08.178Z,100402.89
2023-05-06T02:02:42.347Z,100410.64
2023-05-06T02:05:14.647Z,100394.30
2023-05-06T02:07:47.614Z,100413.22
2023-05-06T02:10:20.156Z,100409.76
2023-05-06T02:12:54.444Z,100412.30
2023-05-06T02:15:27.758Z,100419.17
2023-05-06T02:18:01.703Z,100415.71
2023-05-06T02:20:34.394Z,100423.45
2023-05-06T02:23:08.328Z,100419.98
2023-05-06T02:25:40.477Z,100419.10
2023-05-06T02:28:13.041Z,100429.38
2023-05-06T02:30:45.778Z,100428.51
2023-05-06T02:33:17.940Z,100433.62
2023-05-06T02:35:50.461Z,100431.90
2023-05-06T02:38:23.299Z,100427.62
2023-05-06T02:40:55.400Z,100422.45
2023-05-06T02:43:27.662Z,100436.20
2023-05-06T02:45:59.916Z,100436.22
2023-05-06T02:48:32.373Z,100436.20
2023-05-06T02:51:06.944Z,100442.20
2023-05-06T02:53:38.651Z,100435.26
2023-05-06T02:56:10.605Z,100440.34
2023-05-06T02:58:43.117Z,100436.87
2023-05-06T03:01:15.406Z,100442.84
2023-05-06T03:03:48.141Z,100442.75
2023-05-06T03:06:21.131Z,100452.12
2023-05-06T03:08:53.588Z,100445.07
2023-05-06T03:11:25.860Z,100450.16
2023-05-06T03:13:58.473Z,100452.70
2023-05-06T03:16:30.752Z,100463.91
2023-05-06T03:19:05.204Z,100453.61
2023-05-06T03:21:37.482Z,100462.27
2023-05-06T03:24:09.130Z,100464.66
2023-05-06T03:26:41.376Z,100456.18
2023-05-06T03:29:14.176Z,100452.73
2023-05-06T03:31:49.052Z,100461.38
2023-05-06T03:34:22.076Z,100462.19
2023-05-06T03:36:54.881Z,100466.56
2023-05-06T03:39:27.253Z,100460.48
2023-05-06T03:41:59.867Z,100458.73
2023-05-06T03:44:32.356Z,100454.34
2023-05-06T03:47:04.929Z,100456.80
2023-05-06T03:49:37.968Z,100466.92
2023-05-06T03:52:10.348Z,100476.39
2023-05-06T03:54:42.767Z,100465.86
2023-05-06T03:57:14.878Z,100468.42
2023-05-06T03:59:47.862Z,100475.14
2023-05-06T04:02:20.670Z,100467.17
2023-05-06T04:04:52.835Z,100459.45
2023-05-06T04:07:25.053Z,100461.98
2023-05-06T04:09:57.125Z,100465.30
2023-05-06T04:12:29.740Z,100472.80
2023-05-06T04:15:02.148Z,100469.95
2023-05-06T04:17:34.562Z,100480.02
2023-05-06T04:20:09.655Z,100484.94
2023-05-06T04:22:42.916Z,100470.04
2023-05-06T04:25:16.372Z,100476.72
2023-05-06T04:27:50.181Z,100482.50
2023-05-06T04:30:23.544Z,100487.61
2023-05-06T04:32:55.913Z,100475.42
2023-05-06T04:35:28.390Z,100485.59
2023-05-06T04:38:01.330Z,100485.32
2023-05-06T04:40:36.681Z,100491.95
2023-05-06T04:43:10.521Z,100482.33
2023-05-06T04:45:46.305Z,100488.34
2023-05-06T04:48:19.795Z,100488.34
2023-05-06T04:50:53.198Z,100489.64
2023-05-06T04:53:25.695Z,100495.45
2023-05-06T04:55:59.302Z,100503.27
2023-05-06T04:58:31.920Z,100490.51
2023-05-06T05:01:06.327Z,100488.02
2023-05-06T05:03:44.974Z,100476.25
2023-05-06T05:06:17.300Z,100481.09
2023-05-06T05:08:50.039Z,100477.44
2023-05-06T05:11:22.587Z,100482.95
2023-05-06T05:13:56.898Z,100486.94
2023-05-06T05:16:29.961Z,100485.73
2023-05-06T05:19:09.025Z,100483.64
2023-05-06T05:21:40.700Z,100473.22
2023-05-06T05:24:13.180Z,100476.40
2023-05-06T05:26:45.898Z,100476.83
2023-05-06T05:29:19.586Z,100480.87
2023-05-06T05:31:52.282Z,100477.25
2023-05-06T05:34:24.595Z,100478.09
2023-05-06T05:36:58.793Z,100491.69
2023-05-06T05:39:30.880Z,100478.53
2023-05-06T05:42:04.060Z,100477.52
2023-05-06T05:44:37.372Z,100482.23
2023-05-06T05:47:10.237Z,100477.28
2023-05-06T05:49:43.119Z,100483.14
2023-05-06T05:52:16.713Z,100478.07
2023-05-06T05:54:49.989Z,100496.95
2023-05-06T05:57:22.088Z,100490.78
2023-05-06T05:59:54.433Z,100486.66
2023-05-06T06:02:26.693Z,100501.50
2023-05-06T06:04:59.260Z,100496.05
2023-05-06T06:07:33.915Z,100497.55
2023-05-06T06:10:06.460Z,100500.96
2023-05-06T06:12:38.714Z,100501.55
2023-05-06T06:15:12.556Z,100496.92
2023-05-06T06:17:46.022Z,100487.92
2023-05-06T06:20:18.509Z,100496.94
2023-05-06T06:22:50.701Z,100491.70
2023-05-06T06:25:23.894Z,100493.53
2023-05-06T06:27:57.676Z,100499.05
2023-05-06T06:30:30.094Z,100496.68
2023-05-06T06:33:02.642Z,100503.89
2023-05-06T06:35:35.040Z,100499.27
2023-05-06T06:38:07.243Z,100505.98
2023-05-06T06:40:39.525Z,100507.95
2023-05-06T06:43:11.846Z,100518.22
2023-05-06T06:46:02.187Z,100518.57
2023-05-06T06:48:35.033Z,100525.67
2023-05-06T06:51:07.272Z,100516.71
2023-05-06T06:53:39.407Z,100515.01
2023-05-06T06:56:13.254Z,100523.64
2023-05-06T06:58:45.663Z,100525.37
2023-05-06T07:01:18.048Z,100538.50
2023-05-06T07:03:50.154Z,100533.75
2023-05-06T07:06:22.415Z,100540.42
2023-05-06T07:08:56.497Z,100553.84
2023-05-06T07:11:28.640Z,100550.31
2023-05-06T07:14:01.225Z,100544.38
2023-05-06T07:16:33.648Z,100560.91
2023-05-06T07:19:05.904Z,100550.57
2023-05-06T07:21:38.026Z,100547.30
2023-05-06T07:24:11.397Z,100560.18
2023-05-06T07:26:45.338Z,100551.98
2023-05-06T07:29:18.071Z,100555.81
2023-05-06T07:31:50.527Z,100560.80
2023-05-06T07:34:22.753Z,100553.80
2023-05-06T07:36:54.927Z,100561.64
2023-05-06T07:39:27.210Z,100574.20
2023-05-06T07:41:59.490Z,100558.08
2023-05-06T07:44:31.807Z,100560.01
2023-05-06T07:47:04.353Z,100560.01
2023-05-06T07:49:36.759Z,100555.81
2023-05-06T07:52:10.554Z,100553.05
2023-05-06T07:54:42.733Z,100520.91
2023-05-06T07:57:16.090Z,100556.56
2023-05-06T07:59:50.919Z,100549.39
2023-05-06T08:02:24.254Z,100554.49
2023-05-06T08:04:57.639Z,100561.33
2023-05-06T08:07:30.160Z,100562.59
2023-05-06T08:10:02.312Z,100562.45
2023-05-06T08:12:36.626Z,100568.48
2023-05-06T08:15:09.974Z,100562.95
2023-05-06T08:17:42.843Z,100588.66
2023-05-06T08:20:15.664Z,100584.59
2023-05-06T08:22:47.855Z,100579.27
2023-05-06T08:25:20.111Z,100565.46
2023-05-06T08:27:52.319Z,100565.38
2023-05-06T08:30:24.716Z,100563.84
2023-05-06T08:32:56.929Z,100561.53
2023-05-06T08:35:29.374Z,100553.70
2023-05-06T08:38:02.236Z,100557.84
2023-05-06T08:40:35.380Z,100553.35
2023-05-06T08:43:09.937Z,100564.67
2023-05-06T08:45:43.087Z,100575.79
2023-05-06T08:48:15.413Z,100561.27
2023-05-06T08:50:50.149Z,100557.11
2023-05-06T08:53:22.804Z,100551.68
2023-05-06T08:55:56.181Z,100561.86
2023-05-06T08:58:29.088Z,100565.84
2023-05-06T09:01:02.136Z,100555.16
2023-05-06T09:03:34.776Z,100556.86
2023-05-06T09:06:07.072Z,100554.19
2023-05-06T09:08:39.367Z,100547.37
2023-05-06T09:11:26.204Z,100554.15
2023-05-06T09:14:13.861Z,100551.41
2023-05-06T09:16:51.014Z,100563.86
2023-05-06T09:19:24.264Z,100563.14
2023-05-06T09:21:57.660Z,100553.16
2023-05-06T09:24:30.110Z,100551.52
2023-05-06T09:27:03.604Z,100549.91
2023-05-06T09:29:36.516Z,100560.81
2023-05-06T09:32:11.893Z,100550.89
2023-05-06T09:34:46.887Z,100544.05
2023-05-06T09:37:21.111Z,100540.05
2023-05-06T09:39:58.715Z,100547.44
2023-05-06T09:42:34.223Z,100557.09
2023-05-06T09:45:10.561Z,100560.50
2023-05-06T09:47:44.857Z,100552.41
2023-05-06T09:50:17.777Z,100560.52
2023-05-06T09:52:51.268Z,100559.20
2023-05-06T09:55:27.187Z,100571.56
2023-05-06T09:58:01.848Z,100562.59
2023-05-06T10:00:35.317Z,100561.87
2023-05-06T10:03:09.120Z,100563.89
2023-05-06T10:05:41.841Z,100555.91
2023-05-06T10:08:18.014Z,100557.06
2023-05-06T10:10:52.185Z,100558.20
2023-05-06T10:13:25.227Z,100550.47
2023-05-06T10:15:57.859Z,100562.35
2023-05-06T10:18:31.833Z,100550.78
2023-05-06T10:21:07.143Z,100541.33
2023-05-06T10:23:50.283Z,100546.89
2023-05-06T10:26:24.659Z,100533.90
2023-05-06T10:28:56.395Z,100542.34
2023-05-06T10:31:29.470Z,100546.98
2023-05-06T10:34:04.923Z,100545.73
2023-05-06T10:36:39.860Z,100558.27
2023-05-06T10:39:14.452Z,100557.96
2023-05-06T10:41:47.048Z,100553.16
2023-05-06T10:44:19.598Z,100561.63
2023-05-06T10:47:03.048Z,100550.36
2023-05-06T10:49:35.828Z,100545.86
2023-05-06T10:52:17.340Z,100550.52
2023-05-06T10:54:52.382Z,100544.55
2023-05-06T10:57:26.384Z,100546.46
2023-05-06T10:59:58.831Z,100554.63
2023-05-06T11:02:32.142Z,100544.97
2023-05-06T11:05:06.841Z,100549.13
2023-05-06T11:07:39.403Z,100566.25
2023-05-06T11:10:12.434Z,100560.33
2023-05-06T11:12:53.761Z,100561.39
2023-05-06T11:15:30.666Z,100553.98
2023-05-06T11:18:04.521Z,100544.96
2023-05-06T11:20:37.457Z,100547.39
2023-05-06T11:23:09.716Z,100556.48
2023-05-06T11:25:43.299Z,100546.45
2023-05-06T11:28:16.903Z,100547.66
2023-05-06T11:30:52.105Z,100541.53
2023-05-06T11:33:27.154Z,100545.83
2023-05-06T11:36:00.204Z,100540.05
2023-05-06T11:38:56.508Z,100535.90
2023-05-06T11:41:29.108Z,100542.36
2023-05-06T11:44:01.237Z,100538.48
2023-05-06T11:46:35.597Z,100540.71
2023-05-06T11:49:08.122Z,100532.22
2023-05-06T11:51:40.302Z,100538.06
2023-05-06T11:54:13.378Z,100542.82
2023-05-06T11:56:48.110Z,100536.66
2023-05-06T11:59:28.797Z,100545.47
2023-05-06T12:02:04.057Z,100533.75
2023-05-06T12:04:46.714Z,100529.41
2023-05-06T12:07:19.260Z,100532.39
2023-05-06T12:09:52.173Z,100550.97
2023-05-06T12:12:26.429Z,100553.00
2023-05-06T12:14:59.455Z,100541.36
2023-05-06T12:17:32.437Z,100552.27
2023-05-06T12:20:06.026Z,100559.05
2023-05-06T12:22:39.399Z,100553.27
2023-05-06T12:25:16.206Z,100561.74
2023-05-06T12:27:49.382Z,100569.85
2023-05-06T12:30:33.098Z,100562.51
2023-05-06T12:33:05.424Z,100565.04
2023-05-06T12:35:38.576Z,100562.16
2023-05-06T12:38:13.508Z,100561.11
2023-05-06T12:40:48.319Z,100560.59
2023-05-06T12:43:19.982Z,100563.91
2023-05-06T12:46:10.904Z,100563.25
2023-05-06T12:49:03.986Z,100555.86
2023-05-06T12:51:36.543Z,100554.11
2023-05-06T12:54:12.133Z,100545.59
2023-05-06T12:56:47.207Z,100563.31
2023-05-06T12:59:21.387Z,100572.48
2023-05-06T13:01:53.521Z,100559.92
2023-05-06T13:04:27.084Z,100562.37
2023-05-06T13:06:59.434Z,100569.55
2023-05-06T13:09:32.075Z,100568.72
2023-05-06T13:12:05.167Z,100568.14
2023-05-06T13:14:40.097Z,100576.33
2023-05-06T13:17:11.783Z,100572.84
2023-05-06T13:19:44.393Z,100565.66
2023-05-06T13:22:17.673Z,100564.79
2023-05-06T13:24:50.886Z,100566.37
2023-05-06T13:27:23.125Z,100544.57
2023-05-06T13:29:55.755Z,100561.38
2023-05-06T13:32:28.304Z,100561.81
2023-05-06T13:35:00.814Z,100571.61
2023-05-06T13:37:33.420Z,100582.45
2023-05-06T13:40:06.544Z,100576.73
2023-05-06T13:42:39.082Z,100580.53
2023-05-06T13:45:11.487Z,100578.25
2023-05-06T13:47:44.242Z,100583.68
2023-05-06T13:50:16.568Z,100572.31
2023-05-06T13:52:48.752Z,100572.05
2023-05-06T13:55:21.293Z,100563.29
2023-05-06T13:57:53.453Z,100564.98
2023-05-06T14:00:25.951Z,100567.00
2023-05-06T14:02:59.091Z,100577.44
2023-05-06T14:05:31.705Z,100577.44
2023-05-06T14:08:04.196Z,100577.41
2023-05-06T14:10:36.300Z,100582.87
2023-05-06T14:13:08.598Z,100590.91
2023-05-06T14:15:40.954Z,100585.66
2023-05-06T14:18:13.379Z,100588.33
2023-05-06T14:20:46.008Z,100595.84
2023-05-06T14:23:18.291Z,100591.41
2023-05-06T14:25:50.921Z,100591.70
2023-05-06T14:28:23.167Z,100599.67
2023-05-06T14:30:55.370Z,100600.50
2023-05-06T14:33:27.585Z,100590.84
2023-05-06T14:36:01.524Z,100582.98
2023-05-06T14:38:33.746Z,100582.73
2023-05-06T14:41:05.872Z,100580.58
2023-05-06T14:43:38.263Z,100581.55
2023-05-06T14:46:11.401Z,100575.61
2023-05-06T14:48:44.588Z,100579.09
2023-05-06T14:51:16.928Z,100589.99
2023-05-06T14:53:49.844Z,100582.87
2023-05-06T14:56:22.086Z,100583.77
2023-05-06T14:58:54.181Z,100585.94
2023-05-06T15:01:26.495Z,100588.44
2023-05-06T15:03:59.287Z,100591.40
2023-05-06T15:06:32.249Z,100595.91
2023-05-06T15:09:04.702Z,100597.88
2023-05-06T15:11:37.576Z,100595.39
2023-05-06T15:14:09.838Z,100599.72
2023-05-06T15:16:42.047Z,100591.85
2023-05-06T15:19:14.455Z,100591.08
2023-05-06T15:21:47.273Z,100593.18
2023-05-06T15:24:19.583Z,100599.49
2023-05-06T15:26:51.808Z,100593.98
2023-05-06T15:29:24.839Z,100596.56
2023-05-06T15:31:57.089Z,100589.66
2023-05-06T15:34:29.175Z,100586.86
2023-05-06T15:37:02.098Z,100601.34
2023-05-06T15:39:40.805Z,100599.30
2023-05-06T15:42:12.830Z,100603.61
2023-05-06T15:44:45.024Z,100608.38
2023-05-06T15:47:17.193Z,100616.31
2023-05-06T15:49:54.451Z,100614.61
2023-05-06T15:52:23.960Z,100612.18
2023-05-06T15:54:59.745Z,100607.80
2023-05-06T15:57:32.481Z,100612.86
2023-05-06T16:00:08.250Z,100610.70
2023-05-06T16:02:40.832Z,100624.27
2023-05-06T16:05:13.439Z,100619.20
2023-05-06T16:07:45.763Z,100628.44
2023-05-06T16:10:18.010Z,100627.14
2023-05-06T16:12:50.494Z,100629.10
2023-05-06T16:15:22.837Z,100633.87
2023-05-06T16:17:55.421Z,100632.55
2023-05-06T16:20:27.500Z,100631.08
2023-05-06T16:23:00.054Z,100637.37
2023-05-06T16:25:32.396Z,100640.72
2023-05-06T16:28:06.783Z,100639.21
2023-05-06T16:30:40.927Z,100639.47
2023-05-06T16:33:13.582Z,100634.38
2023-05-06T16:35:46.901Z,100638.02
2023-05-06T16:38:19.545Z,100649.39
2023-05-06T16:40:51.848Z,100643.45
2023-05-06T16:43:24.537Z,100639.27
2023-05-06T16:45:56.649Z,100639.56
2023-05-06T16:48:29.079Z,100640.44
2023-05-06T16:51:01.416Z,100647.30
2023-05-06T16:53:33.570Z,100662.73
2023-05-06T16:56:06.195Z,100664.30
2023-05-06T16:58:38.578Z,100680.81
2023-05-06T17:01:11.367Z,100684.53
2023-05-06T17:03:43.578Z,100685.78
2023-05-06T17:06:15.676Z,100668.73
2023-05-06T17:08:48.748Z,100674.20
2023-05-06T17:11:21.116Z,100670.04
2023-05-06T17:13:53.539Z,100669.36
2023-05-06T17:16:25.815Z,100671.25
2023-05-06T17:18:57.986Z,100682.72
2023-05-06T17:21:30.390Z,100672.38
2023-05-06T17:24:02.578Z,100684.61
2023-05-06T17:26:36.003Z,100686.39
2023-05-06T17:29:08.311Z,100699.34
2023-05-06T17:31:40.698Z,100701.87
2023-05-06T17:34:13.148Z,100700.03
2023-05-06T17:36:45.582Z,100712.20
2023-05-06T17:39:18.312Z,100708.69
2023-05-06T17:41:50.843Z,100706.14
2023-05-06T17:44:23.060Z,100708.05
2023-05-06T17:46:56.450Z,100705.55
2023-05-06T17:49:28.742Z,100704.95
2023-05-06T17:52:01.817Z,100707.78
2023-05-06T17:54:35.305Z,100713.14
2023-05-06T17:57:07.441Z,100722.84
2023-05-06T17:59:39.850Z,100717.75
2023-05-06T18:02:13.657Z,100718.66
2023-05-06T18:04:47.543Z,100715.23
2023-05-06T18:07:19.815Z,100723.10
2023-05-06T18:09:52.451Z,100718.77
2023-05-06T18:12:24.666Z,100718.83
2023-05-06T18:14:57.020Z,100721.53
2023-05-06T18:17:29.553Z,100716.47
2023-05-06T18:20:01.715Z,100724.42
2023-05-06T18:22:35.547Z,100723.66
2023-05-06T18:25:08.932Z,100728.04
2023-05-06T18:27:41.899Z,100716.91
2023-05-06T18:30:15.975Z,100726.53
2023-05-06T18:32:51.006Z,100730.86
2023-05-06T18:35:21.739Z,100730.93
2023-05-06T18:37:53.299Z,100735.82
2023-05-06T18:40:25.524Z,100744.77
2023-05-06T18:42:57.468Z,100734.50
2023-05-06T18:45:29.681Z,100743.27
2023-05-06T18:48:02.071Z,100735.52
2023-05-06T18:50:34.637Z,100745.02
2023-05-06T18:53:07.025Z,100743.22
2023-05-06T18:55:39.443Z,100740.69
2023-05-06T18:58:11.588Z,100744.25
2023-05-06T19:00:44.484Z,100745.21
2023-05-06T19:03:16.796Z,100747.83
2023-05-06T19:05:48.924Z,100746.97
2023-05-06T19:08:21.476Z,100752.14
2023-05-06T19:10:53.539Z,100749.55
2023-05-06T19:13:25.937Z,100751.31
2023-05-06T19:15:58.048Z,100750.51
2023-05-06T19:18:30.122Z,100744.53
2023-05-06T19:21:02.734Z,100749.73
2023-05-06T19:23:34.896Z,100748.93
2023-05-06T19:26:07.522Z,100745.55
2023-05-06T19:28:41.596Z,100752.44
2023-05-06T19:31:13.974Z,100756.83
2023-05-06T19:33:46.515Z,100754.26
2023-05-06T19:36:18.557Z,100759.42
2023-05-06T19:38:50.709Z,100754.26
2023-05-06T19:41:22.934Z,100755.13
2023-05-06T19:43:56.689Z,100755.14
2023-05-06T19:46:28.948Z,100761.21
2023-05-06T19:49:01.208Z,100762.06
2023-05-06T19:51:33.149Z,100755.16
2023-05-06T19:54:05.703Z,100751.69
2023-05-06T19:56:37.949Z,100750.86
2023-05-06T19:59:10.061Z,100763.91
2023-05-06T20:01:42.279Z,100759.64
2023-05-06T20:04:14.412Z,100759.71
2023-05-06T20:06:46.506Z,100761.48
2023-05-06T20:09:18.782Z,100757.19
2023-05-06T20:11:50.904Z,100759.71
2023-05-06T20:14:23.260Z,100759.71
2023-05-06T20:16:55.760Z,100755.41
2023-05-06T20:19:31.297Z,100759.71
2023-05-06T20:22:03.916Z,100761.44
2023-05-06T20:24:36.847Z,100761.43
2023-05-06T20:27:09.836Z,100760.59
2023-05-06T20:29:42.889Z,100759.72
2023-05-06T20:32:15.252Z,100762.33
2023-05-06T20:34:50.406Z,100765.80
2023-05-06T20:37:22.455Z,100764.09
2023-05-06T20:39:54.683Z,100762.39
2023-05-06T20:42:26.883Z,100766.75
2023-05-06T20:45:00.303Z,100759.86
2023-05-06T20:47:35.220Z,100762.47
2023-05-06T20:50:07.806Z,100763.36
2023-05-06T20:52:40.072Z,100766.84
2023-05-06T20:55:13.835Z,100771.20
2023-05-06T20:57:46.008Z,100771.20
2023-05-06T21:00:19.168Z,100773.80
2023-05-06T21:02:51.732Z,100768.60
2023-05-06T21:05:23.928Z,100775.55
2023-05-06T21:07:56.189Z,100776.44
2023-05-06T21:10:29.808Z,100773.86
2023-05-06T21:13:02.130Z,100777.33
2023-05-06T21:15:35.647Z,100774.67
2023-05-06T21:18:07.919Z,100778.16
2023-05-06T21:20:40.047Z,100778.16
2023-05-06T21:23:12.165Z,100772.98
2023-05-06T21:25:44.399Z,100783.34
2023-05-06T21:28:17.108Z,100787.70
2023-05-06T21:30:49.384Z,100785.99
2023-05-06T21:33:21.653Z,100786.86
2023-05-06T21:35:53.680Z,100786.86
2023-05-06T21:38:27.889Z,100790.34
2023-05-06T21:41:00.198Z,100787.75
2023-05-06T21:43:33.465Z,100783.41
2023-05-06T21:46:06.118Z,100789.41
2023-05-06T21:48:38.146Z,100780.80
2023-05-06T21:51:10.280Z,100780.84
2023-05-06T21:53:42.430Z,100782.61
2023-05-06T21:56:14.261Z,100780.89
2023-05-06T21:58:46.591Z,100782.65
2023-05-06T22:01:19.308Z,100784.37
2023-05-06T22:03:51.908Z,100786.95
2023-05-06T22:06:24.322Z,100783.53
2023-05-06T22:08:56.601Z,100789.58
2023-05-06T22:11:28.891Z,100785.28
2023-05-06T22:14:01.234Z,100786.13
2023-05-06T22:16:35.489Z,100789.55
2023-05-06T22:19:08.602Z,100783.53
2023-05-06T22:21:41.492Z,100790.45
2023-05-06T22:24:13.712Z,100787.88
2023-05-06T22:26:46.048Z,100793.92
2023-05-06T22:29:19.069Z,100798.23
2023-05-06T22:31:51.351Z,100795.67
2023-05-06T22:34:23.849Z,100797.38
2023-05-06T22:36:58.038Z,100793.08
2023-05-06T22:39:30.165Z,100792.23
2023-05-06T22:42:02.564Z,100799.13
2023-05-06T22:44:35.316Z,100797.41
2023-05-06T22:47:08.000Z,100799.16
2023-05-06T22:49:40.749Z,100799.13
2023-05-06T22:52:13.192Z,100793.08
2023-05-06T22:54:45.610Z,100798.28
2023-05-06T22:57:19.358Z,100797.41
2023-05-06T22:59:51.816Z,100800.00
2023-05-06T23:02:23.911Z,100799.15
2023-05-06T23:04:56.190Z,100806.07
2023-05-06T23:07:28.283Z,100812.95
2023-05-06T23:10:00.343Z,100810.40
2023-05-06T23:12:35.752Z,100807.81
2023-05-06T23:15:09.009Z,100800.91
2023-05-06T23:17:41.850Z,100805.20
2023-05-06T23:20:14.332Z,100812.12
2023-05-06T23:22:46.461Z,100808.69
2023-05-06T23:25:18.732Z,100816.45
2023-05-06T23:27:51.324Z,100827.64
2023-05-06T23:30:23.870Z,100820.75
2023-05-06T23:32:55.978Z,100819.02
2023-05-06T23:35:28.295Z,100818.16
2023-05-06T23:38:00.497Z,100814.73
2023-05-06T23:40:32.663Z,100818.16
2023-05-06T23:43:06.329Z,100819.02
2023-05-06T23:45:38.752Z,100819.03
2023-05-06T23:48:11.097Z,100822.48
2023-05-06T23:50:43.173Z,100819.03
2023-05-06T23:53:15.523Z,100823.34
2023-05-06T23:55:47.902Z,100821.59
2023-05-06T23:58:20.114Z,100819.02
